sensor_id;sensor_type;location;lat;lon;timestamp;P1;durP1;ratioP1;P2;durP2;ratioP2
41923;SDS011;27613;48.116;11.656;2022-10-17T00:01:39;7.55;;;2.50;;
41923;SDS011;27613;48.116;11.656;2022-10-17T00:04:05;7.35;;;2.42;;
41923;SDS011;27613;48.116;11.656;2022-10-17T00:06:30;4.55;;;2.47;;
41923;SDS011;27613;48.116;11.656;2022-10-17T00:08:56;3.67;;;2.20;;
41923;SDS011;27613;48.116;11.656;2022-10-17T00:11:22;7.85;;;2.60;;
41923;SDS011;27613;48.116;11.656;2022-10-17T00:13:48;6.47;;;2.38;;
41923;SDS011;27613;48.116;11.656;2022-10-17T00:16:22;5.35;;;2.75;;
41923;SDS011;27613;48.116;11.656;2022-10-17T00:18:52;3.30;;;2.28;;
41923;SDS011;27613;48.116;11.656;2022-10-17T00:21:18;10.15;;;2.20;;
41923;SDS011;27613;48.116;11.656;2022-10-17T00:23:45;5.03;;;2.30;;
41923;SDS011;27613;48.116;11.656;2022-10-17T00:26:11;5.15;;;2.28;;
41923;SDS011;27613;48.116;11.656;2022-10-17T00:28:37;5.00;;;2.30;;
41923;SDS011;27613;48.116;11.656;2022-10-17T00:31:03;5.88;;;2.92;;
41923;SDS011;27613;48.116;11.656;2022-10-17T00:33:30;2.67;;;2.00;;
41923;SDS011;27613;48.116;11.656;2022-10-17T00:36:07;7.43;;;2.33;;
41923;SDS011;27613;48.116;11.656;2022-10-17T00:38:38;4.43;;;2.40;;
41923;SDS011;27613;48.116;11.656;2022-10-17T00:41:05;4.13;;;2.28;;
41923;SDS011;27613;48.116;11.656;2022-10-17T00:46:31;3.88;;;2.17;;
41923;SDS011;27613;48.116;11.656;2022-10-17T00:48:59;3.63;;;2.45;;
41923;SDS011;27613;48.116;11.656;2022-10-17T00:51:37;9.57;;;2.83;;
41923;SDS011;27613;48.116;11.656;2022-10-17T00:54:06;8.18;;;2.92;;
41923;SDS011;27613;48.116;11.656;2022-10-17T00:56:35;4.38;;;2.45;;
41923;SDS011;27613;48.116;11.656;2022-10-17T00:59:01;4.70;;;2.20;;
41923;SDS011;27613;48.116;11.656;2022-10-17T01:01:27;4.72;;;2.30;;
41923;SDS011;27613;48.116;11.656;2022-10-17T01:03:52;5.15;;;2.30;;
41923;SDS011;27613;48.116;11.656;2022-10-17T01:06:18;10.35;;;2.70;;
41923;SDS011;27613;48.116;11.656;2022-10-17T01:08:44;2.67;;;2.17;;
41923;SDS011;27613;48.116;11.656;2022-10-17T01:13:58;3.05;;;2.25;;
41923;SDS011;27613;48.116;11.656;2022-10-17T01:22:08;9.90;;;2.40;;
41923;SDS011;27613;48.116;11.656;2022-10-17T01:33:10;5.10;;;2.08;;
41923;SDS011;27613;48.116;11.656;2022-10-17T01:35:40;2.83;;;2.05;;
41923;SDS011;27613;48.116;11.656;2022-10-17T01:38:21;4.22;;;1.83;;
41923;SDS011;27613;48.116;11.656;2022-10-17T01:40:52;3.97;;;2.00;;
41923;SDS011;27613;48.116;11.656;2022-10-17T01:43:33;2.80;;;1.80;;
41923;SDS011;27613;48.116;11.656;2022-10-17T01:48:44;5.70;;;1.90;;
41923;SDS011;27613;48.116;11.656;2022-10-17T01:53:38;2.90;;;1.70;;
41923;SDS011;27613;48.116;11.656;2022-10-17T01:56:16;14.32;;;2.33;;
41923;SDS011;27613;48.116;11.656;2022-10-17T01:58:45;4.15;;;1.88;;
41923;SDS011;27613;48.116;11.656;2022-10-17T02:01:16;3.60;;;2.05;;
41923;SDS011;27613;48.116;11.656;2022-10-17T02:03:43;3.55;;;2.00;;
41923;SDS011;27613;48.116;11.656;2022-10-17T02:06:11;3.42;;;1.77;;
41923;SDS011;27613;48.116;11.656;2022-10-17T02:08:44;4.20;;;1.85;;
41923;SDS011;27613;48.116;11.656;2022-10-17T02:11:21;2.17;;;1.45;;
41923;SDS011;27613;48.116;11.656;2022-10-17T02:18:55;4.93;;;2.00;;
41923;SDS011;27613;48.116;11.656;2022-10-17T02:21:56;3.33;;;1.83;;
41923;SDS011;27613;48.116;11.656;2022-10-17T02:24:44;4.63;;;2.00;;
41923;SDS011;27613;48.116;11.656;2022-10-17T02:30:05;3.17;;;1.70;;
41923;SDS011;27613;48.116;11.656;2022-10-17T02:32:53;7.63;;;2.33;;
41923;SDS011;27613;48.116;11.656;2022-10-17T02:35:24;3.40;;;1.88;;
41923;SDS011;27613;48.116;11.656;2022-10-17T02:37:54;4.13;;;1.95;;
41923;SDS011;27613;48.116;11.656;2022-10-17T02:40:21;2.95;;;1.80;;
41923;SDS011;27613;48.116;11.656;2022-10-17T02:42:50;4.50;;;1.77;;
41923;SDS011;27613;48.116;11.656;2022-10-17T02:45:18;5.03;;;2.20;;
41923;SDS011;27613;48.116;11.656;2022-10-17T02:47:58;6.25;;;1.80;;
41923;SDS011;27613;48.116;11.656;2022-10-17T02:53:03;7.57;;;2.22;;
41923;SDS011;27613;48.116;11.656;2022-10-17T02:55:39;2.92;;;1.80;;
41923;SDS011;27613;48.116;11.656;2022-10-17T02:58:17;3.40;;;1.73;;
41923;SDS011;27613;48.116;11.656;2022-10-17T03:00:47;10.35;;;1.88;;
41923;SDS011;27613;48.116;11.656;2022-10-17T03:03:22;2.72;;;1.85;;
41923;SDS011;27613;48.116;11.656;2022-10-17T03:05:49;1.98;;;1.67;;
41923;SDS011;27613;48.116;11.656;2022-10-17T03:08:16;3.35;;;1.63;;
41923;SDS011;27613;48.116;11.656;2022-10-17T03:10:41;3.40;;;1.88;;
41923;SDS011;27613;48.116;11.656;2022-10-17T03:13:07;3.15;;;2.25;;
41923;SDS011;27613;48.116;11.656;2022-10-17T03:15:33;4.15;;;2.42;;
41923;SDS011;27613;48.116;11.656;2022-10-17T03:17:58;4.53;;;2.80;;
41923;SDS011;27613;48.116;11.656;2022-10-17T03:20:24;5.28;;;2.90;;
41923;SDS011;27613;48.116;11.656;2022-10-17T03:22:49;4.03;;;2.70;;
41923;SDS011;27613;48.116;11.656;2022-10-17T03:25:15;3.30;;;2.60;;
41923;SDS011;27613;48.116;11.656;2022-10-17T03:27:40;3.97;;;2.65;;
41923;SDS011;27613;48.116;11.656;2022-10-17T03:30:06;7.20;;;2.80;;
41923;SDS011;27613;48.116;11.656;2022-10-17T03:32:33;5.50;;;2.78;;
41923;SDS011;27613;48.116;11.656;2022-10-17T03:34:58;4.72;;;2.70;;
41923;SDS011;27613;48.116;11.656;2022-10-17T03:37:24;4.50;;;2.40;;
41923;SDS011;27613;48.116;11.656;2022-10-17T03:39:49;3.13;;;2.20;;
41923;SDS011;27613;48.116;11.656;2022-10-17T03:42:15;3.78;;;2.10;;
41923;SDS011;27613;48.116;11.656;2022-10-17T03:44:41;5.57;;;2.50;;
41923;SDS011;27613;48.116;11.656;2022-10-17T03:47:06;2.75;;;2.08;;
41923;SDS011;27613;48.116;11.656;2022-10-17T03:49:32;3.63;;;2.03;;
41923;SDS011;27613;48.116;11.656;2022-10-17T03:51:57;3.00;;;2.10;;
41923;SDS011;27613;48.116;11.656;2022-10-17T03:54:23;4.68;;;1.90;;
41923;SDS011;27613;48.116;11.656;2022-10-17T03:56:49;3.33;;;2.08;;
41923;SDS011;27613;48.116;11.656;2022-10-17T03:59:14;4.45;;;2.38;;
41923;SDS011;27613;48.116;11.656;2022-10-17T04:01:41;3.85;;;1.88;;
41923;SDS011;27613;48.116;11.656;2022-10-17T04:04:06;3.00;;;1.88;;
41923;SDS011;27613;48.116;11.656;2022-10-17T04:06:32;3.20;;;2.10;;
41923;SDS011;27613;48.116;11.656;2022-10-17T04:08:58;3.38;;;1.77;;
41923;SDS011;27613;48.116;11.656;2022-10-17T04:11:24;2.97;;;1.98;;
41923;SDS011;27613;48.116;11.656;2022-10-17T04:13:53;3.15;;;1.55;;
41923;SDS011;27613;48.116;11.656;2022-10-17T04:16:20;4.82;;;1.75;;
41923;SDS011;27613;48.116;11.656;2022-10-17T04:18:46;2.45;;;1.65;;
41923;SDS011;27613;48.116;11.656;2022-10-17T04:21:12;2.50;;;1.70;;
41923;SDS011;27613;48.116;11.656;2022-10-17T04:23:38;5.55;;;2.28;;
41923;SDS011;27613;48.116;11.656;2022-10-17T04:26:04;4.05;;;1.50;;
41923;SDS011;27613;48.116;11.656;2022-10-17T04:28:31;3.13;;;1.75;;
41923;SDS011;27613;48.116;11.656;2022-10-17T04:30:57;2.72;;;1.80;;
41923;SDS011;27613;48.116;11.656;2022-10-17T04:33:24;4.45;;;2.22;;
41923;SDS011;27613;48.116;11.656;2022-10-17T04:35:59;3.33;;;1.77;;
41923;SDS011;27613;48.116;11.656;2022-10-17T04:38:27;5.07;;;2.00;;
41923;SDS011;27613;48.116;11.656;2022-10-17T04:40:53;2.38;;;1.70;;
41923;SDS011;27613;48.116;11.656;2022-10-17T04:43:21;2.35;;;1.90;;
41923;SDS011;27613;48.116;11.656;2022-10-17T04:45:47;2.63;;;1.88;;
41923;SDS011;27613;48.116;11.656;2022-10-17T04:48:13;5.97;;;2.08;;
41923;SDS011;27613;48.116;11.656;2022-10-17T04:50:38;3.05;;;1.67;;
41923;SDS011;27613;48.116;11.656;2022-10-17T04:53:04;3.30;;;1.90;;
41923;SDS011;27613;48.116;11.656;2022-10-17T04:55:29;4.97;;;1.90;;
41923;SDS011;27613;48.116;11.656;2022-10-17T04:57:55;1.88;;;1.50;;
41923;SDS011;27613;48.116;11.656;2022-10-17T05:00:21;4.63;;;2.15;;
41923;SDS011;27613;48.116;11.656;2022-10-17T05:02:46;5.75;;;2.13;;
41923;SDS011;27613;48.116;11.656;2022-10-17T05:05:12;2.17;;;1.60;;
41923;SDS011;27613;48.116;11.656;2022-10-17T05:07:40;8.45;;;2.20;;
41923;SDS011;27613;48.116;11.656;2022-10-17T05:10:06;2.55;;;1.98;;
41923;SDS011;27613;48.116;11.656;2022-10-17T05:12:32;4.70;;;1.95;;
41923;SDS011;27613;48.116;11.656;2022-10-17T05:14:58;4.13;;;1.90;;
41923;SDS011;27613;48.116;11.656;2022-10-17T05:17:23;8.52;;;2.28;;
41923;SDS011;27613;48.116;11.656;2022-10-17T05:19:51;2.90;;;2.00;;
41923;SDS011;27613;48.116;11.656;2022-10-17T05:22:17;3.40;;;1.75;;
41923;SDS011;27613;48.116;11.656;2022-10-17T05:24:42;4.20;;;2.58;;
41923;SDS011;27613;48.116;11.656;2022-10-17T05:27:08;3.25;;;2.08;;
41923;SDS011;27613;48.116;11.656;2022-10-17T05:29:34;3.60;;;2.10;;
41923;SDS011;27613;48.116;11.656;2022-10-17T05:31:59;3.55;;;2.60;;
41923;SDS011;27613;48.116;11.656;2022-10-17T05:34:25;4.70;;;2.40;;
41923;SDS011;27613;48.116;11.656;2022-10-17T05:36:50;4.72;;;2.47;;
41923;SDS011;27613;48.116;11.656;2022-10-17T05:39:16;3.10;;;2.20;;
41923;SDS011;27613;48.116;11.656;2022-10-17T05:41:43;3.40;;;2.30;;
41923;SDS011;27613;48.116;11.656;2022-10-17T05:44:10;9.35;;;3.55;;
41923;SDS011;27613;48.116;11.656;2022-10-17T05:46:36;4.32;;;2.75;;
41923;SDS011;27613;48.116;11.656;2022-10-17T05:49:01;3.72;;;2.65;;
41923;SDS011;27613;48.116;11.656;2022-10-17T05:51:27;10.13;;;2.50;;
41923;SDS011;27613;48.116;11.656;2022-10-17T05:53:52;5.40;;;2.58;;
41923;SDS011;27613;48.116;11.656;2022-10-17T05:56:18;4.63;;;2.50;;
41923;SDS011;27613;48.116;11.656;2022-10-17T05:58:44;4.80;;;2.90;;
41923;SDS011;27613;48.116;11.656;2022-10-17T06:01:11;3.88;;;2.35;;
41923;SDS011;27613;48.116;11.656;2022-10-17T06:03:37;6.60;;;3.75;;
41923;SDS011;27613;48.116;11.656;2022-10-17T06:06:03;4.05;;;3.00;;
41923;SDS011;27613;48.116;11.656;2022-10-17T06:08:30;4.05;;;2.70;;
41923;SDS011;27613;48.116;11.656;2022-10-17T06:10:56;5.20;;;2.95;;
41923;SDS011;27613;48.116;11.656;2022-10-17T06:13:22;3.95;;;2.42;;
41923;SDS011;27613;48.116;11.656;2022-10-17T06:15:47;12.65;;;3.03;;
41923;SDS011;27613;48.116;11.656;2022-10-17T06:18:13;5.57;;;2.83;;
41923;SDS011;27613;48.116;11.656;2022-10-17T06:20:38;5.95;;;3.25;;
41923;SDS011;27613;48.116;11.656;2022-10-17T06:23:04;6.85;;;2.78;;
41923;SDS011;27613;48.116;11.656;2022-10-17T06:25:30;4.22;;;2.90;;
41923;SDS011;27613;48.116;11.656;2022-10-17T06:27:56;3.70;;;2.50;;
41923;SDS011;27613;48.116;11.656;2022-10-17T06:30:22;5.78;;;3.03;;
41923;SDS011;27613;48.116;11.656;2022-10-17T06:32:47;5.47;;;2.13;;
41923;SDS011;27613;48.116;11.656;2022-10-17T06:35:13;5.28;;;3.05;;
41923;SDS011;27613;48.116;11.656;2022-10-17T06:37:47;5.43;;;2.88;;
41923;SDS011;27613;48.116;11.656;2022-10-17T06:40:12;6.20;;;3.03;;
41923;SDS011;27613;48.116;11.656;2022-10-17T06:42:41;9.85;;;3.20;;
41923;SDS011;27613;48.116;11.656;2022-10-17T06:45:07;5.03;;;3.42;;
41923;SDS011;27613;48.116;11.656;2022-10-17T06:47:34;7.53;;;2.80;;
41923;SDS011;27613;48.116;11.656;2022-10-17T06:50:00;7.32;;;3.58;;
41923;SDS011;27613;48.116;11.656;2022-10-17T06:52:25;12.18;;;3.55;;
41923;SDS011;27613;48.116;11.656;2022-10-17T06:54:51;4.75;;;2.60;;
41923;SDS011;27613;48.116;11.656;2022-10-17T06:57:17;15.52;;;3.33;;
41923;SDS011;27613;48.116;11.656;2022-10-17T06:59:42;9.27;;;3.88;;
41923;SDS011;27613;48.116;11.656;2022-10-17T07:02:09;32.20;;;4.07;;
41923;SDS011;27613;48.116;11.656;2022-10-17T07:04:35;15.98;;;3.90;;
41923;SDS011;27613;48.116;11.656;2022-10-17T07:07:01;22.52;;;3.72;;
41923;SDS011;27613;48.116;11.656;2022-10-17T07:09:27;10.35;;;3.67;;
41923;SDS011;27613;48.116;11.656;2022-10-17T07:11:54;6.95;;;3.60;;
41923;SDS011;27613;48.116;11.656;2022-10-17T07:14:19;13.82;;;3.47;;
41923;SDS011;27613;48.116;11.656;2022-10-17T07:16:45;6.50;;;3.60;;
41923;SDS011;27613;48.116;11.656;2022-10-17T07:19:11;13.20;;;4.00;;
41923;SDS011;27613;48.116;11.656;2022-10-17T07:21:36;7.20;;;3.80;;
41923;SDS011;27613;48.116;11.656;2022-10-17T07:24:02;16.38;;;3.75;;
41923;SDS011;27613;48.116;11.656;2022-10-17T07:26:28;10.30;;;3.28;;
41923;SDS011;27613;48.116;11.656;2022-10-17T07:28:53;5.55;;;2.55;;
41923;SDS011;27613;48.116;11.656;2022-10-17T07:31:20;10.60;;;3.13;;
41923;SDS011;27613;48.116;11.656;2022-10-17T07:33:47;7.25;;;2.67;;
41923;SDS011;27613;48.116;11.656;2022-10-17T07:36:13;3.67;;;2.15;;
41923;SDS011;27613;48.116;11.656;2022-10-17T07:38:39;4.90;;;2.60;;
41923;SDS011;27613;48.116;11.656;2022-10-17T07:41:06;4.03;;;2.65;;
41923;SDS011;27613;48.116;11.656;2022-10-17T07:43:33;6.13;;;2.67;;
41923;SDS011;27613;48.116;11.656;2022-10-17T07:46:00;4.03;;;2.50;;
41923;SDS011;27613;48.116;11.656;2022-10-17T07:48:27;5.05;;;2.38;;
41923;SDS011;27613;48.116;11.656;2022-10-17T07:50:53;4.95;;;2.70;;
41923;SDS011;27613;48.116;11.656;2022-10-17T07:53:18;5.35;;;2.30;;
41923;SDS011;27613;48.116;11.656;2022-10-17T07:55:44;4.72;;;2.33;;
41923;SDS011;27613;48.116;11.656;2022-10-17T07:58:11;3.50;;;2.05;;
41923;SDS011;27613;48.116;11.656;2022-10-17T08:00:38;2.60;;;1.80;;
41923;SDS011;27613;48.116;11.656;2022-10-17T08:03:03;4.20;;;2.00;;
41923;SDS011;27613;48.116;11.656;2022-10-17T08:05:30;3.92;;;2.10;;
41923;SDS011;27613;48.116;11.656;2022-10-17T08:07:56;2.75;;;1.98;;
41923;SDS011;27613;48.116;11.656;2022-10-17T08:10:21;3.28;;;1.80;;
41923;SDS011;27613;48.116;11.656;2022-10-17T08:12:52;2.25;;;1.70;;
41923;SDS011;27613;48.116;11.656;2022-10-17T08:15:18;3.17;;;1.88;;
41923;SDS011;27613;48.116;11.656;2022-10-17T08:17:43;2.45;;;1.70;;
41923;SDS011;27613;48.116;11.656;2022-10-17T08:20:09;3.97;;;1.70;;
41923;SDS011;27613;48.116;11.656;2022-10-17T08:22:36;4.15;;;1.85;;
41923;SDS011;27613;48.116;11.656;2022-10-17T08:25:01;16.95;;;1.70;;
41923;SDS011;27613;48.116;11.656;2022-10-17T08:27:27;3.13;;;1.70;;
41923;SDS011;27613;48.116;11.656;2022-10-17T08:29:52;3.47;;;1.83;;
41923;SDS011;27613;48.116;11.656;2022-10-17T08:32:22;2.05;;;1.45;;
41923;SDS011;27613;48.116;11.656;2022-10-17T08:34:50;2.38;;;1.70;;
41923;SDS011;27613;48.116;11.656;2022-10-17T08:37:16;2.47;;;1.50;;
41923;SDS011;27613;48.116;11.656;2022-10-17T08:39:42;3.58;;;1.95;;
41923;SDS011;27613;48.116;11.656;2022-10-17T08:45:27;4.20;;;2.28;;
41923;SDS011;27613;48.116;11.656;2022-10-17T08:48:00;2.83;;;1.70;;
41923;SDS011;27613;48.116;11.656;2022-10-17T08:53:02;2.10;;;1.48;;
41923;SDS011;27613;48.116;11.656;2022-10-17T08:55:48;1.98;;;1.48;;
41923;SDS011;27613;48.116;11.656;2022-10-17T08:58:27;1.95;;;1.50;;
41923;SDS011;27613;48.116;11.656;2022-10-17T09:06:17;3.17;;;1.50;;
41923;SDS011;27613;48.116;11.656;2022-10-17T09:11:47;2.35;;;1.52;;
41923;SDS011;27613;48.116;11.656;2022-10-17T09:21:51;2.33;;;1.42;;
41923;SDS011;27613;48.116;11.656;2022-10-17T09:24:22;4.82;;;1.70;;
41923;SDS011;27613;48.116;11.656;2022-10-17T09:27:03;4.07;;;1.60;;
41923;SDS011;27613;48.116;11.656;2022-10-17T09:29:30;1.60;;;1.25;;
41923;SDS011;27613;48.116;11.656;2022-10-17T09:32:15;5.55;;;1.60;;
41923;SDS011;27613;48.116;11.656;2022-10-17T09:34:43;2.67;;;1.40;;
41923;SDS011;27613;48.116;11.656;2022-10-17T09:37:12;2.60;;;1.50;;
41923;SDS011;27613;48.116;11.656;2022-10-17T09:39:39;2.95;;;1.55;;
41923;SDS011;27613;48.116;11.656;2022-10-17T09:42:07;6.88;;;1.60;;
41923;SDS011;27613;48.116;11.656;2022-10-17T09:44:41;3.10;;;1.85;;
41923;SDS011;27613;48.116;11.656;2022-10-17T09:50:02;4.45;;;1.67;;
41923;SDS011;27613;48.116;11.656;2022-10-17T09:52:32;3.05;;;1.67;;
41923;SDS011;27613;48.116;11.656;2022-10-17T09:57:29;3.75;;;1.75;;
41923;SDS011;27613;48.116;11.656;2022-10-17T10:00:24;3.40;;;1.80;;
41923;SDS011;27613;48.116;11.656;2022-10-17T10:03:07;2.42;;;1.58;;
41923;SDS011;27613;48.116;11.656;2022-10-17T10:05:33;1.98;;;1.60;;
41923;SDS011;27613;48.116;11.656;2022-10-17T10:08:00;2.88;;;1.52;;
41923;SDS011;27613;48.116;11.656;2022-10-17T10:10:37;3.35;;;1.60;;
41923;SDS011;27613;48.116;11.656;2022-10-17T10:15:48;2.30;;;1.40;;
41923;SDS011;27613;48.116;11.656;2022-10-17T10:23:44;3.05;;;1.40;;
41923;SDS011;27613;48.116;11.656;2022-10-17T10:26:49;4.55;;;1.95;;
41923;SDS011;27613;48.116;11.656;2022-10-17T10:31:57;2.95;;;1.30;;
41923;SDS011;27613;48.116;11.656;2022-10-17T10:34:35;2.28;;;1.25;;
41923;SDS011;27613;48.116;11.656;2022-10-17T10:37:20;5.20;;;1.65;;
41923;SDS011;27613;48.116;11.656;2022-10-17T10:39:56;2.03;;;1.67;;
41923;SDS011;27613;48.116;11.656;2022-10-17T10:42:27;2.42;;;1.48;;
41923;SDS011;27613;48.116;11.656;2022-10-17T10:44:55;4.05;;;1.60;;
41923;SDS011;27613;48.116;11.656;2022-10-17T10:47:55;2.00;;;1.48;;
41923;SDS011;27613;48.116;11.656;2022-10-17T10:55:51;2.10;;;1.45;;
41923;SDS011;27613;48.116;11.656;2022-10-17T11:01:06;1.27;;;1.08;;
41923;SDS011;27613;48.116;11.656;2022-10-17T11:04:10;4.55;;;1.35;;
41923;SDS011;27613;48.116;11.656;2022-10-17T11:06:37;1.63;;;1.10;;
41923;SDS011;27613;48.116;11.656;2022-10-17T11:11:47;1.55;;;1.08;;
41923;SDS011;27613;48.116;11.656;2022-10-17T11:17:12;1.52;;;1.00;;
41923;SDS011;27613;48.116;11.656;2022-10-17T11:20:09;2.05;;;1.20;;
41923;SDS011;27613;48.116;11.656;2022-10-17T11:22:54;2.38;;;1.10;;
41923;SDS011;27613;48.116;11.656;2022-10-17T11:25:45;1.60;;;1.20;;
41923;SDS011;27613;48.116;11.656;2022-10-17T11:28:16;2.85;;;1.15;;
41923;SDS011;27613;48.116;11.656;2022-10-17T11:33:09;2.85;;;1.33;;
41923;SDS011;27613;48.116;11.656;2022-10-17T11:35:43;1.88;;;1.02;;
41923;SDS011;27613;48.116;11.656;2022-10-17T11:38:30;2.08;;;1.17;;
41923;SDS011;27613;48.116;11.656;2022-10-17T11:41:07;1.98;;;1.13;;
41923;SDS011;27613;48.116;11.656;2022-10-17T11:43:56;1.67;;;1.02;;
41923;SDS011;27613;48.116;11.656;2022-10-17T11:46:27;2.42;;;1.20;;
41923;SDS011;27613;48.116;11.656;2022-10-17T11:49:03;2.22;;;1.02;;
41923;SDS011;27613;48.116;11.656;2022-10-17T11:51:33;2.15;;;1.20;;
41923;SDS011;27613;48.116;11.656;2022-10-17T11:59:47;2.05;;;1.10;;
41923;SDS011;27613;48.116;11.656;2022-10-17T12:02:55;1.90;;;1.27;;
41923;SDS011;27613;48.116;11.656;2022-10-17T12:17:02;1.08;;;0.93;;
41923;SDS011;27613;48.116;11.656;2022-10-17T12:19:30;1.85;;;0.90;;
41923;SDS011;27613;48.116;11.656;2022-10-17T12:22:04;1.05;;;0.90;;
41923;SDS011;27613;48.116;11.656;2022-10-17T12:24:35;4.13;;;1.00;;
41923;SDS011;27613;48.116;11.656;2022-10-17T12:27:20;2.75;;;1.20;;
41923;SDS011;27613;48.116;11.656;2022-10-17T12:32:36;2.80;;;1.27;;
41923;SDS011;27613;48.116;11.656;2022-10-17T12:35:03;1.95;;;1.10;;
41923;SDS011;27613;48.116;11.656;2022-10-17T12:45:44;1.70;;;1.20;;
41923;SDS011;27613;48.116;11.656;2022-10-17T12:48:12;1.33;;;1.08;;
41923;SDS011;27613;48.116;11.656;2022-10-17T12:51:11;1.58;;;1.23;;
41923;SDS011;27613;48.116;11.656;2022-10-17T12:56:20;1.70;;;1.20;;
41923;SDS011;27613;48.116;11.656;2022-10-17T12:58:55;1.90;;;1.05;;
41923;SDS011;27613;48.116;11.656;2022-10-17T13:03:50;2.25;;;1.05;;
41923;SDS011;27613;48.116;11.656;2022-10-17T13:06:21;1.85;;;1.27;;
41923;SDS011;27613;48.116;11.656;2022-10-17T13:08:55;1.95;;;0.98;;
41923;SDS011;27613;48.116;11.656;2022-10-17T13:11:28;2.00;;;1.25;;
41923;SDS011;27613;48.116;11.656;2022-10-17T13:13:59;1.30;;;1.10;;
41923;SDS011;27613;48.116;11.656;2022-10-17T13:16:37;1.50;;;0.95;;
41923;SDS011;27613;48.116;11.656;2022-10-17T13:19:12;2.22;;;0.95;;
41923;SDS011;27613;48.116;11.656;2022-10-17T13:21:56;1.80;;;1.00;;
41923;SDS011;27613;48.116;11.656;2022-10-17T13:26:57;1.85;;;1.00;;
41923;SDS011;27613;48.116;11.656;2022-10-17T13:29:24;1.25;;;0.93;;
41923;SDS011;27613;48.116;11.656;2022-10-17T13:31:53;1.80;;;0.90;;
41923;SDS011;27613;48.116;11.656;2022-10-17T13:34:22;1.10;;;0.93;;
41923;SDS011;27613;48.116;11.656;2022-10-17T13:37:22;0.82;;;0.68;;
41923;SDS011;27613;48.116;11.656;2022-10-17T13:39:41;1.75;;;1.10;;
41923;SDS011;27613;48.116;11.656;2022-10-17T13:42:21;1.40;;;1.00;;
41923;SDS011;27613;48.116;11.656;2022-10-17T13:44:48;2.28;;;1.08;;
41923;SDS011;27613;48.116;11.656;2022-10-17T13:47:21;1.63;;;1.00;;
41923;SDS011;27613;48.116;11.656;2022-10-17T13:49:48;2.25;;;1.25;;
41923;SDS011;27613;48.116;11.656;2022-10-17T13:52:16;4.22;;;1.17;;
41923;SDS011;27613;48.116;11.656;2022-10-17T13:54:45;1.42;;;0.88;;
41923;SDS011;27613;48.116;11.656;2022-10-17T13:59:58;1.92;;;1.25;;
41923;SDS011;27613;48.116;11.656;2022-10-17T14:02:28;3.22;;;1.02;;
41923;SDS011;27613;48.116;11.656;2022-10-17T14:10:03;1.58;;;1.10;;
41923;SDS011;27613;48.116;11.656;2022-10-17T14:12:30;1.42;;;0.98;;
41923;SDS011;27613;48.116;11.656;2022-10-17T14:14:57;1.73;;;0.93;;
41923;SDS011;27613;48.116;11.656;2022-10-17T14:17:26;1.88;;;0.85;;
41923;SDS011;27613;48.116;11.656;2022-10-17T14:19:54;1.08;;;0.88;;
41923;SDS011;27613;48.116;11.656;2022-10-17T14:22:28;3.17;;;0.90;;
41923;SDS011;27613;48.116;11.656;2022-10-17T14:24:57;1.10;;;1.00;;
41923;SDS011;27613;48.116;11.656;2022-10-17T14:30:03;2.35;;;0.82;;
41923;SDS011;27613;48.116;11.656;2022-10-17T14:32:32;1.80;;;1.08;;
41923;SDS011;27613;48.116;11.656;2022-10-17T14:35:01;1.15;;;0.98;;
41923;SDS011;27613;48.116;11.656;2022-10-17T14:37:32;2.10;;;1.23;;
41923;SDS011;27613;48.116;11.656;2022-10-17T14:40:05;1.42;;;0.90;;
41923;SDS011;27613;48.116;11.656;2022-10-17T14:42:31;2.55;;;1.20;;
41923;SDS011;27613;48.116;11.656;2022-10-17T14:45:07;1.63;;;1.05;;
41923;SDS011;27613;48.116;11.656;2022-10-17T14:47:37;2.00;;;1.20;;
41923;SDS011;27613;48.116;11.656;2022-10-17T14:52:34;2.53;;;1.20;;
41923;SDS011;27613;48.116;11.656;2022-10-17T14:55:22;2.30;;;1.38;;
41923;SDS011;27613;48.116;11.656;2022-10-17T14:57:49;1.65;;;1.20;;
41923;SDS011;27613;48.116;11.656;2022-10-17T15:00:16;6.20;;;1.40;;
41923;SDS011;27613;48.116;11.656;2022-10-17T15:02:43;1.55;;;1.27;;
41923;SDS011;27613;48.116;11.656;2022-10-17T15:05:09;1.35;;;1.02;;
41923;SDS011;27613;48.116;11.656;2022-10-17T15:07:35;2.55;;;0.93;;
41923;SDS011;27613;48.116;11.656;2022-10-17T15:10:01;1.67;;;1.10;;
41923;SDS011;27613;48.116;11.656;2022-10-17T15:12:27;2.17;;;1.15;;
41923;SDS011;27613;48.116;11.656;2022-10-17T15:14:53;1.85;;;1.27;;
41923;SDS011;27613;48.116;11.656;2022-10-17T15:17:26;2.47;;;1.40;;
41923;SDS011;27613;48.116;11.656;2022-10-17T15:19:53;4.15;;;1.35;;
41923;SDS011;27613;48.116;11.656;2022-10-17T15:22:20;1.95;;;1.33;;
41923;SDS011;27613;48.116;11.656;2022-10-17T15:24:46;1.40;;;1.20;;
41923;SDS011;27613;48.116;11.656;2022-10-17T15:27:16;1.70;;;1.40;;
41923;SDS011;27613;48.116;11.656;2022-10-17T15:29:44;1.63;;;1.20;;
41923;SDS011;27613;48.116;11.656;2022-10-17T15:32:10;1.48;;;1.08;;
41923;SDS011;27613;48.116;11.656;2022-10-17T15:34:36;1.75;;;1.20;;
41923;SDS011;27613;48.116;11.656;2022-10-17T15:37:02;3.83;;;1.58;;
41923;SDS011;27613;48.116;11.656;2022-10-17T15:39:29;1.95;;;1.40;;
41923;SDS011;27613;48.116;11.656;2022-10-17T15:41:55;3.63;;;1.67;;
41923;SDS011;27613;48.116;11.656;2022-10-17T15:44:20;3.10;;;1.52;;
41923;SDS011;27613;48.116;11.656;2022-10-17T15:46:46;3.65;;;1.55;;
41923;SDS011;27613;48.116;11.656;2022-10-17T15:49:13;2.97;;;1.70;;
41923;SDS011;27613;48.116;11.656;2022-10-17T15:51:41;3.03;;;1.50;;
41923;SDS011;27613;48.116;11.656;2022-10-17T15:54:07;2.75;;;1.75;;
41923;SDS011;27613;48.116;11.656;2022-10-17T15:56:35;4.38;;;1.90;;
41923;SDS011;27613;48.116;11.656;2022-10-17T15:59:03;2.70;;;1.70;;
41923;SDS011;27613;48.116;11.656;2022-10-17T16:01:31;2.42;;;1.95;;
41923;SDS011;27613;48.116;11.656;2022-10-17T16:03:58;4.72;;;2.58;;
41923;SDS011;27613;48.116;11.656;2022-10-17T16:06:24;6.63;;;2.50;;
41923;SDS011;27613;48.116;11.656;2022-10-17T16:08:50;4.40;;;2.55;;
41923;SDS011;27613;48.116;11.656;2022-10-17T16:11:18;4.13;;;2.33;;
41923;SDS011;27613;48.116;11.656;2022-10-17T16:13:53;5.85;;;2.08;;
41923;SDS011;27613;48.116;11.656;2022-10-17T16:16:21;3.17;;;2.08;;
41923;SDS011;27613;48.116;11.656;2022-10-17T16:18:47;4.65;;;2.17;;
41923;SDS011;27613;48.116;11.656;2022-10-17T16:21:13;6.28;;;2.28;;
41923;SDS011;27613;48.116;11.656;2022-10-17T16:23:40;7.50;;;3.28;;
41923;SDS011;27613;48.116;11.656;2022-10-17T16:26:06;3.58;;;2.05;;
41923;SDS011;27613;48.116;11.656;2022-10-17T16:28:32;4.90;;;2.83;;
41923;SDS011;27613;48.116;11.656;2022-10-17T16:30:58;5.88;;;3.13;;
41923;SDS011;27613;48.116;11.656;2022-10-17T16:33:23;7.38;;;2.33;;
41923;SDS011;27613;48.116;11.656;2022-10-17T16:35:49;5.60;;;2.47;;
41923;SDS011;27613;48.116;11.656;2022-10-17T16:38:15;6.80;;;2.40;;
41923;SDS011;27613;48.116;11.656;2022-10-17T16:40:41;7.85;;;2.38;;
41923;SDS011;27613;48.116;11.656;2022-10-17T16:43:09;4.30;;;2.55;;
41923;SDS011;27613;48.116;11.656;2022-10-17T16:45:38;5.18;;;2.50;;
41923;SDS011;27613;48.116;11.656;2022-10-17T16:48:04;3.22;;;2.08;;
41923;SDS011;27613;48.116;11.656;2022-10-17T16:50:30;3.00;;;2.08;;
41923;SDS011;27613;48.116;11.656;2022-10-17T16:52:59;7.07;;;2.63;;
41923;SDS011;27613;48.116;11.656;2022-10-17T16:55:25;4.28;;;2.70;;
41923;SDS011;27613;48.116;11.656;2022-10-17T16:57:50;4.60;;;2.60;;
41923;SDS011;27613;48.116;11.656;2022-10-17T17:00:16;5.82;;;2.55;;
41923;SDS011;27613;48.116;11.656;2022-10-17T17:02:42;5.05;;;2.85;;
41923;SDS011;27613;48.116;11.656;2022-10-17T17:05:10;4.85;;;2.63;;